»·PEaware :: WAT175 KLAS-KPHX

WAT175 :: KLAS-KPHX

FLIGHT INFORMATION

Flight Status: Arrived
Operator: Unknown
More flights by this operator :: More flights under this callsign
Pilot: Anonymous 27126 (27126)
Aircraft: BOEING 737-800
(B738)
More flights by this aircraft type
Origin: KLAS McCarran Intl
United States
Destination: KPHX Phoenix Sky Harbor Intl
United States
More flights between these airports :: More routes between these airports
Route: PRFUM4 PRFUM WOTRO BRUSR1
File this flight plan on PilotEdge
Remarks: RMK / SIMBRIEF
Altitude:
(Current/Filed)
29,000ft
Speed:
(Current/Filed)
413kts
Departed: 13-May-20 07:36 PM
Arrived: 13-May-20 08:25 PM
Distance/Time
Traveled:
222nm/0:49
Distance/Time
To Go:
Arrived

Flight Plot

Page will automatically refresh every two minutes.


Map Options




Map Legend


Flown Route
Filed Route
Departure Airport
Arrival Airport
Navaid (VOR, NDB)
Fix

Horizontal Profiles

Position Reports

Time Latitude Longitude Heading Altitude Ground
Speed
13-May-20 19:05 36.081056 -115.137167 60 2121ft 0kts
13-May-20 19:06 36.081056 -115.137167 60 2121ft 0kts
13-May-20 19:07 36.081056 -115.137167 60 2121ft 0kts
13-May-20 19:08 36.081056 -115.137167 60 2121ft 0kts
13-May-20 19:09 36.081056 -115.137167 60 2121ft 0kts
13-May-20 19:10 36.081056 -115.137167 60 2121ft 0kts
13-May-20 19:11 36.081056 -115.137167 60 2121ft 0kts
13-May-20 19:12 36.081056 -115.137167 60 2121ft 0kts
13-May-20 19:13 36.081056 -115.137167 60 2121ft 0kts
13-May-20 19:14 36.081056 -115.137167 60 2121ft 0kts
13-May-20 19:15 36.081056 -115.137167 60 2121ft 0kts
13-May-20 19:16 36.081056 -115.137167 60 2121ft 0kts
13-May-20 19:17 36.081056 -115.137167 60 2121ft 0kts
13-May-20 19:18 36.081056 -115.137167 60 2121ft 0kts
13-May-20 19:19 36.081056 -115.137167 60 2121ft 0kts
13-May-20 19:20 36.081056 -115.137168 60 2121ft 0kts
13-May-20 19:21 36.080814 -115.137702 60 2121ft 2kts
13-May-20 19:22 36.080875 -115.137990 132 2121ft 0kts
13-May-20 19:23 36.080875 -115.137990 132 2121ft 0kts
13-May-20 19:24 36.079140 -115.136124 140 2121ft 10kts
13-May-20 19:25 36.078276 -115.132466 91 2121ft 16kts
13-May-20 19:26 36.078282 -115.126086 91 2121ft 17kts
13-May-20 19:27 36.078307 -115.123272 93 2121ft 3kts
13-May-20 19:29 36.078022 -115.122311 127 2121ft 0kts
13-May-20 19:30 36.078022 -115.122311 127 2121ft 0kts
13-May-20 19:31 36.078022 -115.122311 127 2121ft 0kts
13-May-20 19:32 36.077873 -115.122067 127 2121ft 2kts
13-May-20 19:33 36.077414 -115.121438 146 2121ft 0kts
13-May-20 19:34 36.076441 -115.121835 263 2121ft 0kts
13-May-20 19:35 36.076441 -115.121835 263 2121ft 0kts
13-May-20 19:36 36.076980 -115.161408 274 3197ft 181kts
13-May-20 19:37 36.069751 -115.234596 242 5232ft 265kts
13-May-20 19:38 36.006369 -115.284314 196 7120ft 292kts
13-May-20 19:39 35.925065 -115.283813 165 10778ft 304kts
13-May-20 19:40 35.878173 -115.199978 92 13382ft 346kts
13-May-20 19:41 35.875016 -115.077492 94 15984ft 370kts
13-May-20 19:42 35.870065 -114.946986 95 18361ft 392kts
13-May-20 19:43 35.864676 -114.809472 95 19932ft 412kts
13-May-20 19:44 35.858781 -114.665166 98 22001ft 428kts
13-May-20 19:45 35.814329 -114.530382 123 23877ft 432kts
13-May-20 19:45 35.761779 -114.423474 125 25335ft 443kts
13-May-20 19:46 35.694310 -114.294026 127 26946ft 455kts
13-May-20 19:48 35.612317 -114.139488 127 28620ft 469kts
13-May-20 19:48 35.551905 -114.026390 127 28973ft 480kts
13-May-20 19:49 35.478395 -113.889649 127 28972ft 478kts
13-May-20 19:51 35.392569 -113.731131 127 28972ft 479kts
13-May-20 19:51 35.331309 -113.618067 127 28972ft 478kts
13-May-20 19:52 35.260481 -113.487586 127 28974ft 448kts
13-May-20 19:53 35.190378 -113.359124 127 28972ft 453kts
13-May-20 19:54 35.119961 -113.230679 128 28983ft 453kts
13-May-20 19:55 35.050382 -113.104013 128 29011ft 437kts
13-May-20 19:56 34.981676 -112.980113 128 29054ft 451kts
13-May-20 19:57 34.910113 -112.851044 128 29054ft 461kts
13-May-20 19:58 34.839568 -112.724057 128 27765ft 451kts
13-May-20 19:59 34.771386 -112.601762 129 25954ft 414kts
13-May-20 20:00 34.705500 -112.494584 140 24513ft 383kts
13-May-20 20:01 34.627807 -112.409163 145 22804ft 370kts
13-May-20 20:02 34.549860 -112.331206 146 21096ft 354kts
13-May-20 20:03 34.473645 -112.256622 149 19383ft 345kts
13-May-20 20:04 34.389037 -112.216219 171 17730ft 314kts
13-May-20 20:05 34.303985 -112.193280 172 16110ft 307kts
13-May-20 20:06 34.218768 -112.171308 172 14836ft 326kts
13-May-20 20:07 34.132484 -112.148918 172 13725ft 294kts
13-May-20 20:08 34.053636 -112.124076 165 12777ft 293kts
13-May-20 20:09 33.976426 -112.092376 165 11866ft 289kts
13-May-20 20:10 33.900118 -112.061366 165 10867ft 287kts
13-May-20 20:11 33.823302 -112.030216 165 9866ft 284kts
13-May-20 20:12 33.747968 -111.999683 165 9052ft 280kts
13-May-20 20:13 33.675182 -111.970278 165 8428ft 268kts
13-May-20 20:14 33.606467 -111.942530 165 7589ft 257kts
13-May-20 20:15 33.539292 -111.911784 141 7041ft 262kts
13-May-20 20:16 33.522894 -111.829961 95 6317ft 260kts
13-May-20 20:17 33.513062 -111.743873 128 5084ft 256kts
13-May-20 20:18 33.458188 -111.740611 233 5037ft 195kts
13-May-20 20:19 33.439845 -111.801358 271 4337ft 199kts
13-May-20 20:20 33.440342 -111.856273 271 3438ft 141kts
13-May-20 20:21 33.440606 -111.905399 271 2569ft 142kts
13-May-20 20:22 33.440704 -111.955181 270 1775ft 152kts
13-May-20 20:23 33.440775 -112.004222 271 1124ft 138kts
13-May-20 20:24 33.439750 -112.021047 204 1119ft 11kts
13-May-20 20:25 33.439035 -112.016366 91 1119ft 21kts
13-May-20 20:26 33.438425 -112.010272 176 1119ft 11kts
13-May-20 20:27 33.437864 -112.009348 102 1119ft 0kts
13-May-20 20:28 33.437864 -112.009348 102 1119ft 0kts

Navigation Log

Ident Type
Flight plan parsing failed, navigation log unavailable